Time;durP1;ratioP1;P1;durP2;ratioP2;P2;SDS_P1;SDS_P2;PMS_P1;PMS_P2;Temp;Humidity;BMP_temperature;BMP_pressure;BME280_temperature;BME280_humidity;BME280_pressure;Samples;Min_cycle;Max_cycle;Signal;HPM_P1;HPM_P2
2022/08/17 00:01:50;;;;;;;6.25;5.10;;;21.90;91.60;;;;;;8327464;28;20056;-76
2022/08/17 00:05:55;;;;;;;7.65;4.95;;;21.80;91.70;;;;;;8326058;28;20056;-75
2022/08/17 00:09:59;;;;;;;5.82;4.93;;;21.80;91.90;;;;;;8328367;28;20526;-76
2022/08/17 00:14:07;;;;;;;6.25;4.60;;;21.60;92.20;;;;;;8328454;28;20041;-76
2022/08/17 00:18:10;;;;;;;7.03;4.78;;;21.50;92.50;;;;;;8314915;28;20049;-75
2022/08/17 00:22:13;;;;;;;6.82;4.90;;;21.40;92.80;;;;;;8322350;28;20069;-74
2022/08/17 00:26:17;;;;;;;6.63;5.47;;;21.40;93.00;;;;;;8313171;28;20037;-75
2022/08/17 00:30:19;;;;;;;6.22;5.13;;;21.40;93.50;;;;;;8320466;28;20041;-76
2022/08/17 00:34:24;;;;;;;6.95;5.07;;;21.40;93.40;;;;;;8327861;28;20731;-75
2022/08/17 00:38:27;;;;;;;7.72;5.40;;;21.30;93.70;;;;;;8323906;28;20053;-76
2022/08/17 00:42:30;;;;;;;8.27;6.20;;;21.30;94.00;;;;;;8315268;28;20050;-75
2022/08/17 00:46:36;;;;;;;7.38;5.80;;;21.30;94.30;;;;;;8318136;28;20046;-75
2022/08/17 00:50:43;;;;;;;7.05;5.47;;;21.10;94.70;;;;;;8325434;28;20487;-75
2022/08/17 00:54:51;;;;;;;6.57;5.25;;;21.20;94.80;;;;;;8323856;28;20041;-76
2022/08/17 00:58:55;;;;;;;8.13;6.00;;;21.10;95.10;;;;;;8316387;28;20484;-75
2022/08/17 01:03:02;;;;;;;6.72;5.68;;;20.90;95.30;;;;;;8320493;28;20056;-76
2022/08/17 01:07:05;;;;;;;8.10;6.10;;;20.60;95.80;;;;;;8326790;28;20075;-75
2022/08/17 01:11:09;;;;;;;7.38;6.47;;;20.60;96.30;;;;;;8317391;28;20049;-74
2022/08/17 01:15:12;;;;;;;10.43;6.65;;;20.60;96.40;;;;;;8320598;28;20041;-76
2022/08/17 01:19:19;;;;;;;10.75;7.00;;;20.50;96.50;;;;;;8319403;28;20049;-74
2022/08/17 01:23:25;;;;;;;8.13;6.63;;;20.60;96.70;;;;;;8311356;28;20863;-77
2022/08/17 01:27:28;;;;;;;9.65;6.60;;;20.60;96.80;;;;;;8316051;28;20133;-76
2022/08/17 01:31:38;;;;;;;10.45;7.15;;;20.70;96.60;;;;;;8320822;28;20053;-77
2022/08/17 01:35:41;;;;;;;10.63;7.32;;;20.60;96.20;;;;;;8316496;28;20061;-74
2022/08/17 01:39:49;;;;;;;11.98;7.40;;;20.40;96.60;;;;;;8324967;28;20041;-76
2022/08/17 01:43:55;;;;;;;10.20;7.80;;;20.30;96.90;;;;;;8319871;28;20408;-76
2022/08/17 01:47:57;;;;;;;10.27;6.85;;;20.20;97.40;;;;;;8321130;28;20052;-75
2022/08/17 01:52:07;;;;;;;8.75;6.80;;;20.30;97.20;;;;;;8324022;28;20041;-73
2022/08/17 01:56:13;;;;;;;9.32;6.97;;;20.30;97.30;;;;;;8305277;28;20053;-75
2022/08/17 02:00:17;;;;;;;11.23;7.15;;;20.30;97.30;;;;;;8310891;28;20054;-74
2022/08/17 02:04:19;;;;;;;9.13;7.10;;;20.30;97.20;;;;;;8323385;28;20049;-75
2022/08/17 02:08:22;;;;;;;9.55;6.68;;;20.20;97.30;;;;;;8320014;28;20091;-76
2022/08/17 02:12:25;;;;;;;8.73;6.75;;;20.30;97.60;;;;;;8306772;28;20045;-74
2022/08/17 02:16:27;;;;;;;7.80;5.97;;;20.40;97.60;;;;;;8320322;28;20042;-73
2022/08/17 02:20:30;;;;;;;8.00;6.50;;;20.40;97.30;;;;;;8322110;28;20073;-75
2022/08/17 02:24:36;;;;;;;8.63;6.53;;;20.30;97.60;;;;;;8324070;28;20910;-76
2022/08/17 02:28:40;;;;;;;9.50;6.38;;;20.10;97.80;;;;;;8314334;28;20507;-76
2022/08/17 02:32:42;;;;;;;8.25;6.78;;;20.00;98.00;;;;;;8323870;28;20037;-76
2022/08/17 02:36:44;;;;;;;9.52;7.32;;;20.00;97.90;;;;;;8315435;28;20502;-75
2022/08/17 02:40:46;;;;;;;10.73;7.65;;;20.00;97.70;;;;;;8323288;28;20405;-75
2022/08/17 02:44:49;;;;;;;8.18;7.10;;;20.00;97.50;;;;;;8318207;28;20046;-75
2022/08/17 02:48:51;;;;;;;9.73;7.38;;;20.10;97.80;;;;;;8320614;28;20506;-74
2022/08/17 02:52:54;;;;;;;10.65;7.13;;;20.10;97.70;;;;;;8323856;28;20041;-74
2022/08/17 02:56:56;;;;;;;9.35;6.60;;;20.20;97.80;;;;;;8318204;28;20045;-75
2022/08/17 03:00:59;;;;;;;9.73;6.65;;;20.10;98.00;;;;;;8312432;28;20045;-74
2022/08/17 03:05:02;;;;;;;8.57;6.78;;;20.10;98.10;;;;;;8321722;28;20042;-76
2022/08/17 03:09:04;;;;;;;8.73;6.30;;;20.20;98.20;;;;;;8320470;28;20059;-75
2022/08/17 03:13:07;;;;;;;8.93;6.93;;;20.20;98.10;;;;;;8309801;28;20045;-74
2022/08/17 03:17:11;;;;;;;9.30;6.22;;;20.10;98.20;;;;;;8326782;28;20054;-74
2022/08/17 03:21:13;;;;;;;7.88;6.53;;;19.90;98.80;;;;;;8357726;28;20065;-74
2022/08/17 03:25:21;;;;;;;8.50;6.45;;;19.80;98.60;;;;;;8353891;28;20049;-76
2022/08/17 03:29:23;;;;;;;7.90;6.80;;;19.80;98.90;;;;;;8361175;28;20097;-74
2022/08/17 03:33:26;;;;;;;8.90;6.65;;;19.90;98.60;;;;;;8353800;28;20042;-75
2022/08/17 03:37:28;;;;;;;9.57;6.22;;;19.90;98.40;;;;;;8331658;28;20042;-74
2022/08/17 03:41:31;;;;;;;7.97;6.47;;;19.90;98.40;;;;;;8323264;28;20052;-75
2022/08/17 03:58:36;;;;;;;9.90;7.10;;;19.30;99.00;;;;;;8298755;28;20049;-75
2022/08/17 04:02:38;;;;;;;9.00;7.63;;;19.30;98.90;;;;;;8327374;28;20050;-76
2022/08/17 04:06:43;;;;;;;9.25;7.50;;;19.30;98.60;;;;;;8310882;28;20399;-74
2022/08/17 04:10:45;;;;;;;9.55;7.10;;;19.20;98.90;;;;;;8325839;28;20506;-73
2022/08/17 04:14:47;;;;;;;10.18;7.57;;;19.20;98.50;;;;;;8319386;28;20041;-74
2022/08/17 04:18:49;;;;;;;9.35;7.07;;;19.20;98.60;;;;;;8303334;28;20410;-75
2022/08/17 04:23:02;;;;;;;11.63;7.50;;;19.20;98.50;;;;;;8301415;28;20049;-75
2022/08/17 04:27:04;;;;;;;9.52;7.35;;;19.30;98.30;;;;;;8302146;28;20435;-75
2022/08/17 04:31:06;;;;;;;10.43;7.43;;;19.30;98.30;;;;;;8306155;28;20053;-74
2022/08/17 04:35:09;;;;;;;8.65;7.22;;;19.30;98.10;;;;;;8303044;28;20046;-74
2022/08/17 04:39:12;;;;;;;8.90;6.75;;;19.40;98.00;;;;;;8308740;28;20112;-74
2022/08/17 04:43:16;;;;;;;8.02;6.88;;;19.50;97.90;;;;;;8301385;28;20416;-75
2022/08/17 04:47:18;;;;;;;8.82;7.00;;;19.60;97.70;;;;;;8302553;28;20118;-74
2022/08/17 04:51:23;;;;;;;9.23;7.00;;;19.80;97.50;;;;;;8320016;28;20164;-76
2022/08/17 04:55:27;;;;;;;9.15;6.60;;;19.80;97.20;;;;;;8326020;28;20428;-75
2022/08/17 04:59:29;;;;;;;8.48;6.80;;;19.80;97.30;;;;;;8301558;28;20049;-76
2022/08/17 05:03:31;;;;;;;9.32;6.95;;;19.90;97.50;;;;;;8303470;28;20058;-78
2022/08/17 05:07:33;;;;;;;8.73;6.70;;;19.90;97.30;;;;;;8325736;28;20045;-75
2022/08/17 05:11:38;;;;;;;8.93;6.80;;;20.00;97.10;;;;;;8332473;28;20522;-76
2022/08/17 05:15:42;;;;;;;8.40;6.72;;;20.00;97.00;;;;;;8334818;28;20049;-76
2022/08/17 05:19:44;;;;;;;9.27;7.22;;;20.10;97.00;;;;;;8333514;28;20502;-75
2022/08/17 05:23:46;;;;;;;10.13;6.85;;;20.10;97.00;;;;;;8333165;28;20053;-74
2022/08/17 05:27:50;;;;;;;10.77;7.53;;;20.00;97.40;;;;;;8321157;28;20050;-74
2022/08/17 05:31:53;;;;;;;9.57;7.03;;;20.20;97.30;;;;;;8315077;28;20041;-74
2022/08/17 05:35:57;;;;;;;10.65;7.65;;;20.20;97.20;;;;;;8323671;28;20046;-76
2022/08/17 05:39:59;;;;;;;7.70;6.90;;;20.10;97.00;;;;;;8329453;28;20056;-74
2022/08/17 05:44:03;;;;;;;8.65;6.63;;;20.10;97.10;;;;;;8332628;28;20479;-74
2022/08/17 05:48:07;;;;;;;9.32;6.95;;;20.20;97.30;;;;;;8332686;28;20053;-76
2022/08/17 05:52:33;;;;;;;8.82;7.18;;;20.30;97.10;;;;;;8331771;28;20045;-74
2022/08/17 05:56:55;;;;;;;10.77;7.43;;;20.20;97.20;;;;;;8299800;28;20046;-74
2022/08/17 06:01:07;;;;;;;9.20;7.13;;;20.20;97.50;;;;;;8299264;28;20049;-76
2022/08/17 06:05:28;;;;;;;9.90;7.97;;;20.30;98.10;;;;;;8320603;28;20053;-76
2022/08/17 06:09:40;;;;;;;13.88;7.57;;;20.20;98.30;;;;;;8330704;28;20049;-73
2022/08/17 06:14:04;;;;;;;9.00;7.10;;;20.30;98.20;;;;;;8331932;28;20124;-76
2022/08/17 06:18:10;;;;;;;10.07;7.43;;;20.20;98.00;;;;;;8299602;28;20041;-74
2022/08/17 06:22:16;;;;;;;9.43;6.70;;;20.40;98.00;;;;;;8298965;28;20050;-74
2022/08/17 06:26:24;;;;;;;9.10;6.53;;;20.50;97.90;;;;;;8298770;28;20049;-73
2022/08/17 06:30:30;;;;;;;7.70;6.15;;;20.60;97.60;;;;;;8312897;28;20045;-74
2022/08/17 06:34:34;;;;;;;8.77;6.30;;;20.80;97.30;;;;;;8317812;28;20416;-73
2022/08/17 06:38:50;;;;;;;8.15;6.72;;;20.90;97.20;;;;;;8297980;28;20074;-74
2022/08/17 06:43:11;;;;;;;7.55;6.10;;;21.00;96.80;;;;;;8310368;28;20053;-75
2022/08/17 06:47:19;;;;;;;7.68;5.93;;;21.10;96.40;;;;;;8306977;28;20060;-78
2022/08/17 06:51:30;;;;;;;9.30;6.38;;;21.20;96.30;;;;;;8300903;28;20054;-74
2022/08/17 06:55:42;;;;;;;;;;;21.30;96.30;;;;;;8305056;28;20045;-74
2022/08/17 06:59:51;;;;;;;8.50;6.18;;;21.40;97.40;;;;;;8307365;28;19921;-75
2022/08/17 07:04:02;;;;;;;9.38;6.00;;;21.50;97.20;;;;;;8300871;28;20069;-76
2022/08/17 07:08:17;;;;;;;9.57;6.13;;;21.60;96.20;;;;;;8300513;28;20467;-74
2022/08/17 07:12:23;;;;;;;8.07;6.20;;;21.60;96.00;;;;;;8300725;28;20496;-75
2022/08/17 07:16:32;;;;;;;8.95;6.22;;;21.80;96.30;;;;;;8300374;28;20050;-74
2022/08/17 07:20:36;;;;;;;8.48;6.30;;;21.80;95.10;;;;;;8311749;28;20053;-74
2022/08/17 07:24:50;;;;;;;8.80;6.00;;;21.90;95.70;;;;;;8360071;28;20053;-73
2022/08/17 07:28:54;;;;;;;9.40;6.30;;;22.00;96.10;;;;;;8347042;28;20742;-75
2022/08/17 07:33:01;;;;;;;11.60;6.35;;;22.20;95.50;;;;;;8365664;28;20048;-75
2022/08/17 07:37:04;;;;;;;8.73;5.50;;;22.30;95.10;;;;;;8356458;28;20042;-75
2022/08/17 07:41:11;;;;;;;8.93;5.97;;;22.30;94.70;;;;;;8343014;28;20049;-75
2022/08/17 07:49:36;;;;;;;8.27;5.70;;;22.50;94.10;;;;;;8364889;28;20553;-73
2022/08/17 07:53:38;;;;;;;6.90;5.30;;;22.60;93.70;;;;;;8364385;28;20059;-75
2022/08/17 07:57:41;;;;;;;7.03;5.43;;;22.70;93.60;;;;;;8339377;28;20041;-74
2022/08/17 08:01:50;;;;;;;7.70;5.60;;;22.80;93.80;;;;;;8331468;28;20053;-75
2022/08/17 08:05:56;;;;;;;7.82;5.68;;;22.90;93.60;;;;;;8330969;28;20050;-75
2022/08/17 08:10:08;;;;;;;8.80;5.80;;;23.00;94.20;;;;;;8345693;28;20060;-73
2022/08/17 08:14:24;;;;;;;9.52;5.95;;;23.00;94.30;;;;;;8332213;28;20322;-77
2022/08/17 08:18:33;;;;;;;7.70;5.57;;;23.10;94.50;;;;;;8331236;28;20064;-73
2022/08/17 08:22:49;;;;;;;6.57;5.25;;;23.20;94.30;;;;;;8333981;28;20146;-75
2022/08/17 08:27:03;;;;;;;7.25;5.50;;;23.20;92.90;;;;;;8342734;28;20053;-74
2022/08/17 08:31:23;;;;;;;8.30;5.45;;;23.30;92.10;;;;;;8363589;28;20093;-74
2022/08/17 08:35:32;;;;;;;10.30;5.65;;;23.40;91.90;;;;;;8361567;28;20136;-75
2022/08/17 08:39:44;;;;;;;11.70;5.60;;;23.50;91.80;;;;;;8347709;28;20057;-75
2022/08/17 08:44:02;;;;;;;8.80;5.32;;;23.50;90.50;;;;;;8328574;28;20095;-75
2022/08/17 08:48:20;;;;;;;8.63;4.75;;;23.50;90.30;;;;;;8330082;28;20041;-77
2022/08/17 08:53:13;;;;;;;12.13;5.00;;;23.60;87.60;;;;;;8328987;28;20049;-74
2022/08/17 08:57:20;;;;;;;8.73;5.03;;;23.60;88.10;;;;;;8323360;28;20053;-75
2022/08/17 09:01:37;;;;;;;7.30;5.05;;;23.70;90.00;;;;;;8330360;28;20091;-74
2022/08/17 09:06:01;;;;;;;6.45;4.72;;;23.70;89.00;;;;;;8327735;28;20068;-75
2022/08/17 09:10:12;;;;;;;11.23;4.70;;;23.70;87.90;;;;;;8320065;28;20054;-77
2022/08/17 09:14:19;;;;;;;7.40;5.00;;;23.80;88.90;;;;;;8329003;28;20056;-74
2022/08/17 09:18:27;;;;;;;9.88;5.20;;;23.80;89.20;;;;;;8329096;28;20100;-75
2022/08/17 09:22:36;;;;;;;9.82;5.07;;;23.80;87.40;;;;;;8319541;28;20476;-75
2022/08/17 09:26:44;;;;;;;7.43;4.70;;;23.80;89.40;;;;;;8296149;28;20385;-75
2022/08/17 09:30:51;;;;;;;8.68;4.97;;;23.90;90.00;;;;;;8296308;28;20488;-77
2022/08/17 09:34:59;;;;;;;7.65;5.15;;;23.90;87.80;;;;;;8295044;28;20412;-75
2022/08/17 09:39:08;;;;;;;8.70;5.13;;;24.00;88.80;;;;;;8297464;28;20077;-75
2022/08/17 09:43:19;;;;;;;7.45;5.25;;;24.10;87.30;;;;;;8295863;28;20408;-75
2022/08/17 09:47:30;;;;;;;6.60;4.70;;;24.10;87.60;;;;;;8296358;28;20049;-75
2022/08/17 09:51:38;;;;;;;7.70;4.85;;;24.10;87.50;;;;;;8296984;28;20065;-75
2022/08/17 09:56:06;;;;;;;7.20;5.30;;;24.20;87.20;;;;;;8303697;28;20050;-77
2022/08/17 10:00:22;;;;;;;6.15;4.78;;;24.20;86.70;;;;;;8295161;28;20058;-76
2022/08/17 10:04:42;;;;;;;10.93;5.05;;;24.10;87.30;;;;;;8296211;28;20502;-77
2022/08/17 10:08:52;;;;;;;;;;;24.10;86.70;;;;;;8295088;28;20124;-75
2022/08/17 10:13:02;;;;;;;10.40;5.32;;;24.10;88.10;;;;;;8295208;28;19925;-78
2022/08/17 10:17:14;;;;;;;11.63;7.05;;;24.10;90.60;;;;;;8294957;28;20057;-75
2022/08/17 10:30:12;;;;;;;9.38;6.45;;;24.20;93.90;;;;;;8294213;28;20064;-74
2022/08/17 10:35:00;;;;;;;8.88;6.07;;;24.10;96.00;;;;;;8292739;28;20124;-75
2022/08/17 10:39:18;;;;;;;9.68;6.50;;;24.00;97.20;;;;;;8281743;28;20054;-74
2022/08/17 10:43:34;;;;;;;10.43;6.22;;;24.10;97.70;;;;;;8294279;28;20054;-77
2022/08/17 10:47:58;;;;;;;8.82;5.90;;;24.20;95.90;;;;;;8316434;28;20053;-77
2022/08/17 10:52:04;;;;;;;12.18;6.55;;;24.30;94.60;;;;;;8327045;28;20057;-75
2022/08/17 10:56:39;;;;;;;9.18;5.95;;;24.40;94.40;;;;;;8326796;28;20045;-74
2022/08/17 11:01:11;;;;;;;8.38;5.78;;;24.60;94.00;;;;;;8319107;28;20446;-77
2022/08/17 11:05:27;;;;;;;10.02;5.65;;;24.90;91.50;;;;;;8295042;28;20575;-74
2022/08/17 11:09:43;;;;;;;7.97;5.43;;;24.90;91.00;;;;;;8294688;28;20480;-76
2022/08/17 11:14:03;;;;;;;8.10;5.38;;;25.00;90.60;;;;;;8305739;28;20049;-74
2022/08/17 11:18:21;;;;;;;7.20;5.28;;;25.00;88.40;;;;;;8329160;28;20068;-76
2022/08/17 11:23:12;;;;;;;7.32;4.80;;;25.00;87.90;;;;;;8332596;28;20052;-75
2022/08/17 11:27:25;;;;;;;6.75;4.68;;;24.90;87.10;;;;;;8329229;28;20045;-77
2022/08/17 11:31:35;;;;;;;6.15;4.82;;;24.80;88.00;;;;;;8302419;28;20530;-77
2022/08/17 11:35:48;;;;;;;6.93;4.93;;;24.80;88.90;;;;;;8322010;28;20400;-74
2022/08/17 11:40:11;;;;;;;7.65;5.15;;;24.80;88.30;;;;;;8333224;28;20045;-74
2022/08/17 11:44:26;;;;;;;8.73;5.20;;;24.80;89.60;;;;;;8332478;28;20125;-75
2022/08/17 11:53:00;;;;;;;7.53;4.82;;;24.90;89.80;;;;;;8299932;28;20115;-80
2022/08/17 11:57:46;;;;;;;7.00;4.40;;;24.90;89.30;;;;;;8298270;28;20054;-80
2022/08/17 12:01:55;;;;;;;4.90;3.55;;;24.80;86.60;;;;;;8299460;28;20397;-79
2022/08/17 12:06:03;;;;;;;5.57;3.50;;;24.90;83.50;;;;;;8328804;28;20132;-79
2022/08/17 12:10:07;;;;;;;4.78;3.38;;;25.00;81.40;;;;;;8331488;28;20048;-78
2022/08/17 12:14:15;;;;;;;5.30;3.22;;;25.20;80.80;;;;;;8331517;28;20085;-78
2022/08/17 12:18:23;;;;;;;5.40;3.15;;;25.40;79.40;;;;;;8329525;28;20057;-78
2022/08/17 12:22:32;;;;;;;4.75;3.20;;;25.60;80.50;;;;;;8331289;28;20144;-78
2022/08/17 12:26:37;;;;;;;4.10;2.90;;;25.80;76.50;;;;;;8329444;28;20045;-79
2022/08/17 12:30:41;;;;;;;4.88;3.05;;;26.00;75.80;;;;;;8330815;28;20137;-78
2022/08/17 12:34:44;;;;;;;5.78;3.00;;;26.20;75.00;;;;;;8319451;28;20053;-78
2022/08/17 12:38:58;;;;;;;5.13;2.90;;;26.50;73.40;;;;;;8301444;28;20050;-78
2022/08/17 12:43:03;;;;;;;5.90;3.28;;;26.50;72.00;;;;;;8310875;28;20072;-75
2022/08/17 12:47:16;;;;;;;6.47;3.63;;;26.50;72.40;;;;;;8330320;28;20052;-76
2022/08/17 12:51:19;;;;;;;5.03;3.13;;;26.50;70.80;;;;;;8330341;28;20049;-75
2022/08/17 12:55:24;;;;;;;5.40;3.20;;;26.60;70.60;;;;;;8330145;28;20072;-77
2022/08/17 12:59:26;;;;;;;5.32;3.45;;;26.50;70.20;;;;;;8308567;28;20506;-76
2022/08/17 13:03:37;;;;;;;6.28;3.80;;;26.50;70.70;;;;;;8296897;28;20381;-76
2022/08/17 13:07:42;;;;;;;6.63;3.35;;;26.80;71.10;;;;;;8296933;28;20053;-77
2022/08/17 13:11:51;;;;;;;5.57;3.50;;;26.80;70.50;;;;;;8298296;28;20053;-77
2022/08/17 13:15:56;;;;;;;5.03;3.38;;;26.90;68.70;;;;;;8296785;28;20049;-78
2022/08/17 13:20:00;;;;;;;4.68;3.40;;;27.10;70.50;;;;;;8296104;28;20050;-78
2022/08/17 13:24:07;;;;;;;5.65;3.30;;;27.10;70.40;;;;;;8296715;28;20062;-77
2022/08/17 13:28:18;;;;;;;5.90;3.53;;;27.60;68.90;;;;;;8298278;28;20412;-76
2022/08/17 13:32:31;;;;;;;7.97;5.60;;;27.60;67.80;;;;;;8296886;28;20050;-77
2022/08/17 13:36:34;;;;;;;6.78;4.32;;;27.60;66.50;;;;;;8294502;28;20061;-75
2022/08/17 13:40:48;;;;;;;4.88;3.30;;;27.70;65.90;;;;;;8296475;28;20544;-76
2022/08/17 13:44:50;;;;;;;4.75;3.40;;;27.80;66.40;;;;;;8295552;28;20053;-77
2022/08/17 13:49:03;;;;;;;8.07;3.70;;;28.00;65.40;;;;;;8295580;28;20058;-76
2022/08/17 13:53:19;;;;;;;5.20;3.45;;;28.00;63.10;;;;;;8295790;28;20416;-74
2022/08/17 13:57:24;;;;;;;6.00;3.58;;;27.90;62.80;;;;;;8295232;28;20053;-76
2022/08/17 14:01:33;;;;;;;5.40;3.65;;;28.20;63.10;;;;;;8295606;28;20054;-77
2022/08/17 14:05:35;;;;;;;6.00;3.20;;;28.40;62.10;;;;;;8294624;28;20053;-77
2022/08/17 14:09:43;;;;;;;5.05;3.50;;;28.50;61.50;;;;;;8294938;28;20045;-78
2022/08/17 14:13:45;;;;;;;6.82;3.65;;;28.80;62.40;;;;;;8295237;28;20551;-77
2022/08/17 14:17:48;;;;;;;6.70;3.33;;;28.70;61.90;;;;;;8294822;28;20100;-78
2022/08/17 14:21:55;;;;;;;4.97;3.30;;;28.90;62.00;;;;;;8295015;28;20140;-78
2022/08/17 14:25:58;;;;;;;5.13;3.10;;;29.20;59.70;;;;;;8298077;28;20049;-77
2022/08/17 14:30:01;;;;;;;5.68;3.63;;;29.10;59.40;;;;;;8309567;28;20073;-76
2022/08/17 14:34:03;;;;;;;6.28;3.35;;;29.20;59.60;;;;;;8300919;28;20535;-76
2022/08/17 14:38:06;;;;;;;6.07;3.47;;;29.30;58.90;;;;;;8303712;28;20143;-79
2022/08/17 14:42:10;;;;;;;6.47;3.17;;;29.30;58.40;;;;;;8310986;28;20054;-77
2022/08/17 14:46:12;;;;;;;8.85;3.35;;;29.50;58.30;;;;;;8293131;28;20127;-77
2022/08/17 14:50:18;;;;;;;4.78;3.20;;;29.20;58.20;;;;;;8302434;28;20041;-76
2022/08/17 14:54:20;;;;;;;5.43;3.30;;;29.20;58.10;;;;;;8323653;28;20045;-77
2022/08/17 14:58:23;;;;;;;4.22;2.83;;;29.20;57.70;;;;;;8301159;28;20507;-76
2022/08/17 15:02:27;;;;;;;5.22;3.50;;;29.30;58.80;;;;;;8295506;28;20142;-79
2022/08/17 15:06:29;;;;;;;4.68;3.22;;;29.50;58.60;;;;;;8295514;28;20053;-75
2022/08/17 15:10:32;;;;;;;5.70;3.55;;;29.60;58.00;;;;;;8308068;28;20049;-75
2022/08/17 15:14:36;;;;;;;5.22;3.70;;;29.70;59.10;;;;;;8314948;28;20046;-77
2022/08/17 15:18:38;;;;;;;6.35;3.25;;;29.70;57.60;;;;;;8308942;28;20076;-77
2022/08/17 15:22:42;;;;;;;7.32;3.22;;;29.70;57.00;;;;;;8307922;28;20049;-76
2022/08/17 15:26:44;;;;;;;5.32;3.10;;;29.70;56.70;;;;;;8307101;28;20045;-75
2022/08/17 15:30:47;;;;;;;5.07;3.17;;;29.90;56.70;;;;;;8305449;28;20393;-77
2022/08/17 15:34:49;;;;;;;5.13;3.30;;;30.10;56.20;;;;;;8301860;28;20060;-76
2022/08/17 15:38:52;;;;;;;4.05;2.60;;;30.50;54.60;;;;;;8312603;28;20046;-79
2022/08/17 15:42:54;;;;;;;4.72;2.90;;;30.30;53.90;;;;;;8317325;28;20049;-79
2022/08/17 15:46:57;;;;;;;4.18;3.10;;;30.30;55.20;;;;;;8304319;28;20048;-78
2022/08/17 15:51:01;;;;;;;5.32;2.95;;;30.40;54.20;;;;;;8310361;28;20480;-77
2022/08/17 15:55:04;;;;;;;4.68;2.90;;;30.30;54.60;;;;;;8303869;28;20045;-78
2022/08/17 15:59:07;;;;;;;15.93;7.03;;;30.20;55.10;;;;;;8296807;28;20112;-75
2022/08/17 16:03:11;;;;;;;8.13;4.00;;;30.00;55.80;;;;;;8320345;28;20053;-77
2022/08/17 16:07:15;;;;;;;6.75;3.67;;;29.90;55.00;;;;;;8305024;28;20623;-78
2022/08/17 16:11:18;;;;;;;6.63;3.15;;;29.80;55.50;;;;;;8301300;28;20470;-77
2022/08/17 16:15:20;;;;;;;5.20;3.65;;;29.60;55.70;;;;;;8299814;28;20710;-76
2022/08/17 16:19:23;;;;;;;5.93;3.33;;;29.60;56.00;;;;;;8314393;28;20124;-76
2022/08/17 16:23:26;;;;;;;4.78;3.00;;;29.40;56.50;;;;;;8299663;28;20049;-76
2022/08/17 16:27:28;;;;;;;9.82;7.68;;;29.40;56.70;;;;;;8314478;28;20088;-76
2022/08/17 16:31:31;;;;;;;15.35;10.20;;;29.30;56.60;;;;;;8299948;28;20042;-77
2022/08/17 16:35:35;;;;;;;7.25;5.20;;;29.30;56.90;;;;;;8308253;28;20053;-76
2022/08/17 16:39:39;;;;;;;7.38;4.93;;;29.20;58.00;;;;;;8315475;28;20428;-78
2022/08/17 16:43:44;;;;;;;5.65;3.50;;;29.10;58.80;;;;;;8302803;28;20053;-78
2022/08/17 16:47:47;;;;;;;6.22;3.20;;;29.10;59.20;;;;;;8331079;28;20080;-77
2022/08/17 16:51:50;;;;;;;4.88;2.97;;;29.10;59.50;;;;;;8307168;28;20074;-74
2022/08/17 16:55:52;;;;;;;6.43;3.50;;;29.10;59.40;;;;;;8317235;28;20053;-76
2022/08/17 16:59:55;;;;;;;8.50;4.13;;;28.90;58.90;;;;;;8328328;28;20042;-77
2022/08/17 17:04:03;;;;;;;5.78;3.50;;;28.80;60.40;;;;;;8340649;28;20062;-77
2022/08/17 17:08:11;;;;;;;8.40;4.75;;;28.80;59.40;;;;;;8346514;28;20077;-79
2022/08/17 17:12:18;;;;;;;7.30;4.60;;;28.50;60.40;;;;;;8334236;28;20542;-75
2022/08/17 17:16:29;;;;;;;9.52;5.10;;;28.50;62.00;;;;;;8393374;28;20309;-77
2022/08/17 17:20:40;;;;;;;4.90;3.30;;;28.50;63.10;;;;;;8405906;28;20044;-77
2022/08/17 17:24:51;;;;;;;6.88;3.30;;;28.50;62.20;;;;;;8415306;28;20044;-76
2022/08/17 17:29:17;;;;;;;7.10;4.22;;;28.40;63.10;;;;;;8405971;28;20036;-78
2022/08/17 17:33:24;;;;;;;6.88;3.65;;;28.50;63.30;;;;;;8408046;28;20048;-78
2022/08/17 17:37:34;;;;;;;6.30;3.60;;;28.40;62.70;;;;;;8401037;28;20044;-77
2022/08/17 17:41:47;;;;;;;5.25;3.60;;;28.20;63.30;;;;;;8394805;28;20462;-77
2022/08/17 17:45:55;;;;;;;6.07;3.60;;;28.10;63.50;;;;;;8393398;28;20047;-77
2022/08/17 17:49:59;;;;;;;5.28;3.45;;;28.00;63.70;;;;;;8386523;28;20444;-76
2022/08/17 17:54:10;;;;;;;5.68;3.42;;;27.80;64.90;;;;;;8389943;28;20126;-76
2022/08/17 17:58:33;;;;;;;6.63;3.80;;;27.90;64.50;;;;;;8406185;28;20051;-76
2022/08/17 18:02:55;;;;;;;8.10;3.60;;;27.60;66.00;;;;;;8404236;28;20063;-75
2022/08/17 18:07:15;;;;;;;7.18;3.97;;;27.50;63.30;;;;;;8409180;28;20052;-77
2022/08/17 18:11:38;;;;;;;7.18;3.95;;;27.60;63.10;;;;;;8392358;28;20051;-79
2022/08/17 18:15:49;;;;;;;8.10;4.10;;;27.50;63.40;;;;;;8410970;28;20070;-77
2022/08/17 18:19:55;;;;;;;5.78;3.78;;;27.40;63.30;;;;;;8391134;28;20052;-78
2022/08/17 18:24:00;;;;;;;7.32;4.00;;;27.40;63.80;;;;;;8393602;28;20044;-77
2022/08/17 18:28:03;;;;;;;8.07;4.10;;;27.20;65.00;;;;;;8384535;28;20049;-78
2022/08/17 18:32:33;;;;;;;7.10;4.38;;;27.20;66.70;;;;;;8406337;28;20062;-76
2022/08/17 18:36:36;;;;;;;6.75;4.10;;;27.10;67.70;;;;;;8402609;28;20040;-77
2022/08/17 18:40:39;;;;;;;8.43;4.20;;;27.10;68.30;;;;;;8412427;28;20470;-76
2022/08/17 18:44:44;;;;;;;6.32;3.75;;;27.00;69.20;;;;;;8401070;28;20125;-77
2022/08/17 18:48:57;;;;;;;6.10;4.05;;;26.80;69.50;;;;;;8410941;28;20048;-76
2022/08/17 18:53:30;;;;;;;7.93;4.72;;;26.70;73.00;;;;;;8411222;28;20040;-79
2022/08/17 18:57:36;;;;;;;7.00;4.55;;;26.50;75.50;;;;;;8410781;28;20044;-75
2022/08/17 19:01:47;;;;;;;8.95;4.68;;;26.40;75.90;;;;;;8405445;28;20471;-75
2022/08/17 19:05:54;;;;;;;10.65;5.53;;;26.40;73.50;;;;;;8414504;28;20048;-77
2022/08/17 19:10:07;;;;;;;8.05;4.78;;;26.30;74.50;;;;;;8410194;28;20535;-76
2022/08/17 19:14:12;;;;;;;7.25;4.50;;;26.10;75.60;;;;;;8415981;28;20468;-75
2022/08/17 19:18:22;;;;;;;6.90;4.20;;;25.90;77.70;;;;;;8411901;28;20044;-76
2022/08/17 19:22:32;;;;;;;5.83;3.90;;;25.80;75.20;;;;;;8400276;28;20111;-75
2022/08/17 19:26:39;;;;;;;;;;;25.80;77.70;;;;;;8416876;28;20325;-78
2022/08/17 19:30:41;;;;;;;11.30;7.63;;;25.80;75.40;;;;;;8404628;28;19966;-77
2022/08/17 19:34:44;;;;;;;8.70;4.90;;;25.60;73.90;;;;;;8400999;28;20047;-75
2022/08/17 19:39:02;;;;;;;7.47;4.90;;;25.50;73.00;;;;;;8397024;28;20095;-76
2022/08/17 19:43:14;;;;;;;6.57;4.80;;;25.50;73.20;;;;;;8394844;28;20059;-73
2022/08/17 19:47:26;;;;;;;7.00;5.15;;;25.40;72.90;;;;;;8404689;28;20051;-75
2022/08/17 19:51:40;;;;;;;6.70;4.30;;;25.60;75.50;;;;;;8415819;28;20052;-77
2022/08/17 19:55:54;;;;;;;6.88;4.38;;;25.40;75.60;;;;;;8419112;28;20454;-76
2022/08/17 20:00:02;;;;;;;5.35;4.28;;;25.40;77.30;;;;;;8415826;28;20040;-77
2022/08/17 20:04:12;;;;;;;7.85;4.97;;;25.30;78.50;;;;;;8416511;28;20434;-77
2022/08/17 20:08:17;;;;;;;;;;;25.30;75.90;;;;;;8402060;28;20052;-77
2022/08/17 20:12:27;;;;;;;6.95;4.50;;;25.20;78.20;;;;;;8409015;28;19939;-78
2022/08/17 20:16:29;;;;;;;8.00;4.20;;;25.00;75.70;;;;;;8412084;28;20045;-76
2022/08/17 20:20:37;;;;;;;7.68;4.90;;;25.10;76.00;;;;;;8411988;28;20048;-77
2022/08/17 20:24:51;;;;;;;8.25;5.25;;;25.10;75.30;;;;;;8416459;28;20040;-77
2022/08/17 20:29:23;;;;;;;6.60;5.25;;;25.00;78.10;;;;;;8420636;28;20501;-77
2022/08/17 20:33:29;;;;;;;8.38;4.72;;;25.00;77.80;;;;;;8410220;28;20045;-76
2022/08/17 20:37:34;;;;;;;7.78;4.85;;;24.90;79.00;;;;;;8410752;28;20048;-77
2022/08/17 20:42:09;;;;;;;7.45;4.38;;;24.80;80.00;;;;;;8402016;28;20063;-76
2022/08/17 20:46:46;;;;;;;7.18;4.95;;;24.50;81.50;;;;;;8403939;28;20048;-77
2022/08/17 20:50:52;;;;;;;7.70;4.57;;;24.60;82.60;;;;;;8390805;28;20051;-74
2022/08/17 20:54:57;;;;;;;7.15;4.82;;;24.60;82.10;;;;;;8415395;28;20040;-77
2022/08/17 20:58:59;;;;;;;8.20;4.80;;;24.60;81.30;;;;;;8419779;28;20562;-75
2022/08/17 21:03:50;;;;;;;7.97;4.60;;;24.60;81.40;;;;;;8413914;28;20537;-76
2022/08/17 21:07:57;;;;;;;7.30;4.68;;;24.40;84.00;;;;;;8416163;28;20107;-77
2022/08/17 21:12:02;;;;;;;8.75;4.70;;;24.30;84.50;;;;;;8419239;28;20051;-77
2022/08/17 21:16:26;;;;;;;5.72;4.53;;;24.20;85.20;;;;;;8407837;28;20045;-79
2022/08/17 21:20:39;;;;;;;6.55;4.63;;;24.20;84.90;;;;;;8407086;28;20041;-75
2022/08/17 21:24:55;;;;;;;6.28;4.70;;;24.10;85.60;;;;;;8418812;28;20109;-77
2022/08/17 21:29:13;;;;;;;9.25;4.70;;;24.10;85.70;;;;;;8405653;28;20055;-78
2022/08/17 21:33:24;;;;;;;9.32;4.60;;;24.10;81.20;;;;;;8402460;28;20055;-76
2022/08/17 21:37:39;;;;;;;8.18;4.63;;;24.00;80.10;;;;;;8409168;28;20611;-77
2022/08/17 21:41:51;;;;;;;7.65;4.50;;;23.90;81.50;;;;;;8417226;28;20478;-76
2022/08/17 21:46:02;;;;;;;5.93;4.30;;;23.80;82.90;;;;;;8407415;28;20048;-76
2022/08/17 21:50:18;;;;;;;6.97;4.47;;;23.80;83.00;;;;;;8416431;28;20051;-76
2022/08/17 21:54:33;;;;;;;6.05;4.68;;;23.70;83.90;;;;;;8404992;28;20044;-77
2022/08/17 21:58:39;;;;;;;9.30;5.35;;;23.70;83.90;;;;;;8418813;28;20047;-76
2022/08/17 22:02:42;;;;;;;6.22;4.93;;;23.70;84.80;;;;;;8412235;28;20547;-76